sensor_id;sensor_type;location;lat;lon;timestamp;P1;durP1;ratioP1;P2;durP2;ratioP2
317;SDS011;146;53.448;10.228;2023-07-31T00:01:25;3.00;;;2.67;;
317;SDS011;146;53.448;10.228;2023-07-31T00:03:52;6.53;;;2.70;;
317;SDS011;146;53.448;10.228;2023-07-31T00:06:22;4.00;;;2.30;;
317;SDS011;146;53.448;10.228;2023-07-31T00:08:48;2.93;;;2.63;;
317;SDS011;146;53.448;10.228;2023-07-31T00:11:15;2.33;;;2.13;;
317;SDS011;146;53.448;10.228;2023-07-31T00:13:43;2.63;;;2.43;;
317;SDS011;146;53.448;10.228;2023-07-31T00:16:10;3.20;;;2.20;;
317;SDS011;146;53.448;10.228;2023-07-31T00:18:40;3.20;;;2.13;;
317;SDS011;146;53.448;10.228;2023-07-31T00:21:09;3.20;;;2.60;;
317;SDS011;146;53.448;10.228;2023-07-31T00:23:36;3.87;;;2.70;;
317;SDS011;146;53.448;10.228;2023-07-31T00:26:05;3.03;;;2.40;;
317;SDS011;146;53.448;10.228;2023-07-31T00:28:37;2.80;;;2.60;;
317;SDS011;146;53.448;10.228;2023-07-31T00:31:05;2.93;;;2.40;;
317;SDS011;146;53.448;10.228;2023-07-31T00:33:35;3.50;;;2.73;;
317;SDS011;146;53.448;10.228;2023-07-31T00:36:02;4.03;;;2.67;;
317;SDS011;146;53.448;10.228;2023-07-31T00:38:32;3.23;;;2.60;;
317;SDS011;146;53.448;10.228;2023-07-31T00:40:59;3.43;;;2.23;;
317;SDS011;146;53.448;10.228;2023-07-31T00:43:28;2.83;;;2.30;;
317;SDS011;146;53.448;10.228;2023-07-31T00:45:58;3.17;;;2.30;;
317;SDS011;146;53.448;10.228;2023-07-31T00:48:29;3.70;;;2.33;;
317;SDS011;146;53.448;10.228;2023-07-31T00:50:56;3.63;;;2.70;;
317;SDS011;146;53.448;10.228;2023-07-31T00:53:26;2.50;;;2.30;;
317;SDS011;146;53.448;10.228;2023-07-31T00:55:54;2.50;;;2.30;;
317;SDS011;146;53.448;10.228;2023-07-31T00:58:20;3.00;;;2.70;;
317;SDS011;146;53.448;10.228;2023-07-31T01:00:50;3.60;;;2.57;;
317;SDS011;146;53.448;10.228;2023-07-31T01:03:20;4.80;;;3.07;;
317;SDS011;146;53.448;10.228;2023-07-31T01:05:53;2.73;;;2.20;;
317;SDS011;146;53.448;10.228;2023-07-31T01:08:28;2.90;;;2.70;;
317;SDS011;146;53.448;10.228;2023-07-31T01:11:10;3.30;;;2.40;;
317;SDS011;146;53.448;10.228;2023-07-31T01:13:45;5.70;;;2.70;;
317;SDS011;146;53.448;10.228;2023-07-31T01:16:18;3.10;;;2.80;;
317;SDS011;146;53.448;10.228;2023-07-31T01:18:51;2.93;;;2.70;;
317;SDS011;146;53.448;10.228;2023-07-31T01:21:35;3.80;;;2.33;;
317;SDS011;146;53.448;10.228;2023-07-31T01:24:51;2.60;;;2.13;;
317;SDS011;146;53.448;10.228;2023-07-31T01:27:28;4.43;;;2.50;;
317;SDS011;146;53.448;10.228;2023-07-31T01:29:59;4.23;;;3.10;;
317;SDS011;146;53.448;10.228;2023-07-31T01:32:39;4.20;;;3.13;;
317;SDS011;146;53.448;10.228;2023-07-31T01:35:07;3.97;;;3.20;;
317;SDS011;146;53.448;10.228;2023-07-31T01:37:36;3.10;;;2.90;;
317;SDS011;146;53.448;10.228;2023-07-31T01:40:03;5.90;;;2.90;;
317;SDS011;146;53.448;10.228;2023-07-31T01:42:36;3.53;;;2.83;;
317;SDS011;146;53.448;10.228;2023-07-31T01:45:10;3.10;;;2.83;;
317;SDS011;146;53.448;10.228;2023-07-31T01:47:37;3.70;;;3.40;;
317;SDS011;146;53.448;10.228;2023-07-31T01:50:05;4.53;;;3.10;;
317;SDS011;146;53.448;10.228;2023-07-31T01:52:32;4.50;;;2.83;;
317;SDS011;146;53.448;10.228;2023-07-31T01:54:59;4.07;;;3.33;;
317;SDS011;146;53.448;10.228;2023-07-31T01:57:25;4.80;;;3.07;;
317;SDS011;146;53.448;10.228;2023-07-31T01:59:54;3.93;;;3.20;;
317;SDS011;146;53.448;10.228;2023-07-31T02:02:27;5.90;;;2.80;;
317;SDS011;146;53.448;10.228;2023-07-31T02:04:53;5.17;;;2.80;;
317;SDS011;146;53.448;10.228;2023-07-31T02:07:20;3.73;;;3.43;;
317;SDS011;146;53.448;10.228;2023-07-31T02:09:53;4.50;;;3.40;;
317;SDS011;146;53.448;10.228;2023-07-31T02:12:22;4.97;;;3.30;;
317;SDS011;146;53.448;10.228;2023-07-31T02:14:53;7.33;;;4.43;;
317;SDS011;146;53.448;10.228;2023-07-31T02:17:23;4.50;;;3.40;;
317;SDS011;146;53.448;10.228;2023-07-31T02:19:50;5.30;;;3.13;;
317;SDS011;146;53.448;10.228;2023-07-31T02:22:26;3.93;;;3.63;;
317;SDS011;146;53.448;10.228;2023-07-31T02:24:55;3.80;;;3.30;;
317;SDS011;146;53.448;10.228;2023-07-31T02:27:22;4.23;;;3.47;;
317;SDS011;146;53.448;10.228;2023-07-31T02:29:53;3.40;;;3.10;;
317;SDS011;146;53.448;10.228;2023-07-31T02:32:20;5.30;;;3.03;;
317;SDS011;146;53.448;10.228;2023-07-31T02:34:53;6.77;;;3.70;;
317;SDS011;146;53.448;10.228;2023-07-31T02:37:20;3.30;;;3.00;;
317;SDS011;146;53.448;10.228;2023-07-31T02:39:47;4.60;;;3.93;;
317;SDS011;146;53.448;10.228;2023-07-31T02:42:14;4.20;;;3.70;;
317;SDS011;146;53.448;10.228;2023-07-31T02:44:43;3.67;;;3.37;;
317;SDS011;146;53.448;10.228;2023-07-31T04:30:45;6.63;;;6.13;;
317;SDS011;146;53.448;10.228;2023-07-31T04:33:12;6.17;;;5.57;;
317;SDS011;146;53.448;10.228;2023-07-31T04:35:50;6.33;;;5.17;;
317;SDS011;146;53.448;10.228;2023-07-31T04:38:20;6.10;;;5.60;;
317;SDS011;146;53.448;10.228;2023-07-31T04:40:48;5.93;;;5.50;;
317;SDS011;146;53.448;10.228;2023-07-31T04:43:21;7.27;;;6.70;;
317;SDS011;146;53.448;10.228;2023-07-31T04:45:49;6.03;;;5.27;;
317;SDS011;146;53.448;10.228;2023-07-31T04:48:16;5.83;;;5.43;;
317;SDS011;146;53.448;10.228;2023-07-31T04:50:43;6.23;;;5.80;;
317;SDS011;146;53.448;10.228;2023-07-31T04:53:16;6.10;;;5.70;;
317;SDS011;146;53.448;10.228;2023-07-31T04:55:42;6.50;;;6.00;;
317;SDS011;146;53.448;10.228;2023-07-31T04:58:24;6.37;;;5.27;;
317;SDS011;146;53.448;10.228;2023-07-31T05:00:55;7.00;;;5.87;;
317;SDS011;146;53.448;10.228;2023-07-31T05:03:22;6.90;;;6.30;;
317;SDS011;146;53.448;10.228;2023-07-31T05:05:49;6.30;;;5.80;;
317;SDS011;146;53.448;10.228;2023-07-31T05:08:19;6.40;;;5.90;;
317;SDS011;146;53.448;10.228;2023-07-31T05:10:46;5.80;;;5.40;;
317;SDS011;146;53.448;10.228;2023-07-31T05:13:13;9.40;;;5.57;;
317;SDS011;146;53.448;10.228;2023-07-31T05:15:57;5.90;;;5.40;;
317;SDS011;146;53.448;10.228;2023-07-31T05:18:40;6.30;;;5.70;;
317;SDS011;146;53.448;10.228;2023-07-31T05:21:10;5.40;;;5.00;;
317;SDS011;146;53.448;10.228;2023-07-31T05:23:43;6.37;;;5.87;;
317;SDS011;146;53.448;10.228;2023-07-31T05:26:19;4.97;;;4.57;;
317;SDS011;146;53.448;10.228;2023-07-31T05:28:49;5.33;;;4.93;;
317;SDS011;146;53.448;10.228;2023-07-31T05:31:24;5.33;;;4.97;;
317;SDS011;146;53.448;10.228;2023-07-31T05:33:51;5.63;;;4.60;;
317;SDS011;146;53.448;10.228;2023-07-31T05:36:17;6.23;;;5.40;;
317;SDS011;146;53.448;10.228;2023-07-31T05:38:44;5.87;;;5.37;;
317;SDS011;146;53.448;10.228;2023-07-31T05:41:18;6.27;;;5.87;;
317;SDS011;146;53.448;10.228;2023-07-31T05:43:54;5.93;;;5.50;;
317;SDS011;146;53.448;10.228;2023-07-31T05:46:21;6.17;;;5.47;;
317;SDS011;146;53.448;10.228;2023-07-31T05:48:49;6.63;;;6.03;;
317;SDS011;146;53.448;10.228;2023-07-31T05:51:16;6.33;;;5.70;;
317;SDS011;146;53.448;10.228;2023-07-31T05:53:43;5.63;;;5.23;;
317;SDS011;146;53.448;10.228;2023-07-31T05:56:15;5.20;;;4.80;;
317;SDS011;146;53.448;10.228;2023-07-31T05:58:45;4.80;;;4.50;;
317;SDS011;146;53.448;10.228;2023-07-31T06:01:15;5.17;;;4.87;;
317;SDS011;146;53.448;10.228;2023-07-31T06:03:43;4.80;;;4.50;;
317;SDS011;146;53.448;10.228;2023-07-31T06:06:13;5.10;;;4.80;;
317;SDS011;146;53.448;10.228;2023-07-31T06:08:43;5.37;;;4.97;;
317;SDS011;146;53.448;10.228;2023-07-31T06:11:13;5.10;;;4.70;;
317;SDS011;146;53.448;10.228;2023-07-31T06:13:46;4.73;;;4.43;;
317;SDS011;146;53.448;10.228;2023-07-31T06:19:10;5.07;;;4.60;;
317;SDS011;146;53.448;10.228;2023-07-31T06:21:41;3.93;;;3.63;;
317;SDS011;146;53.448;10.228;2023-07-31T06:24:09;4.87;;;4.47;;
317;SDS011;146;53.448;10.228;2023-07-31T06:26:37;4.20;;;3.83;;
317;SDS011;146;53.448;10.228;2023-07-31T06:29:04;4.80;;;4.40;;
317;SDS011;146;53.448;10.228;2023-07-31T06:31:33;4.17;;;3.90;;
317;SDS011;146;53.448;10.228;2023-07-31T06:34:00;4.13;;;3.83;;
317;SDS011;146;53.448;10.228;2023-07-31T06:36:27;4.00;;;3.70;;
317;SDS011;146;53.448;10.228;2023-07-31T06:38:58;4.40;;;4.10;;
317;SDS011;146;53.448;10.228;2023-07-31T06:41:27;4.20;;;3.90;;
317;SDS011;146;53.448;10.228;2023-07-31T06:43:54;3.70;;;3.40;;
317;SDS011;146;53.448;10.228;2023-07-31T06:46:23;3.20;;;3.00;;
317;SDS011;146;53.448;10.228;2023-07-31T06:48:50;3.90;;;3.60;;
317;SDS011;146;53.448;10.228;2023-07-31T06:51:20;3.50;;;3.30;;
317;SDS011;146;53.448;10.228;2023-07-31T06:53:47;3.37;;;3.17;;
317;SDS011;146;53.448;10.228;2023-07-31T06:56:19;3.40;;;3.20;;
317;SDS011;146;53.448;10.228;2023-07-31T06:58:48;3.83;;;3.53;;
317;SDS011;146;53.448;10.228;2023-07-31T07:01:22;3.53;;;3.30;;
317;SDS011;146;53.448;10.228;2023-07-31T07:03:57;3.53;;;3.33;;
317;SDS011;146;53.448;10.228;2023-07-31T07:06:23;3.80;;;3.47;;
317;SDS011;146;53.448;10.228;2023-07-31T07:08:53;3.00;;;2.80;;
317;SDS011;146;53.448;10.228;2023-07-31T07:11:22;3.20;;;3.00;;
317;SDS011;146;53.448;10.228;2023-07-31T07:13:54;2.73;;;2.53;;
317;SDS011;146;53.448;10.228;2023-07-31T07:16:21;2.93;;;2.83;;
317;SDS011;146;53.448;10.228;2023-07-31T07:18:51;4.07;;;2.80;;
317;SDS011;146;53.448;10.228;2023-07-31T07:21:20;4.33;;;2.57;;
317;SDS011;146;53.448;10.228;2023-07-31T07:23:56;3.93;;;2.67;;
317;SDS011;146;53.448;10.228;2023-07-31T07:26:30;2.50;;;2.40;;
317;SDS011;146;53.448;10.228;2023-07-31T07:28:57;3.17;;;2.97;;
317;SDS011;146;53.448;10.228;2023-07-31T07:31:27;2.57;;;2.37;;
317;SDS011;146;53.448;10.228;2023-07-31T07:33:53;3.00;;;2.80;;
317;SDS011;146;53.448;10.228;2023-07-31T07:36:20;2.50;;;2.17;;
317;SDS011;146;53.448;10.228;2023-07-31T07:38:47;3.07;;;2.87;;
317;SDS011;146;53.448;10.228;2023-07-31T07:41:14;3.80;;;2.27;;
317;SDS011;146;53.448;10.228;2023-07-31T07:43:44;2.57;;;2.47;;
317;SDS011;146;53.448;10.228;2023-07-31T07:46:23;2.63;;;2.43;;
317;SDS011;146;53.448;10.228;2023-07-31T07:48:55;2.13;;;2.00;;
317;SDS011;146;53.448;10.228;2023-07-31T07:51:22;1.93;;;1.83;;
317;SDS011;146;53.448;10.228;2023-07-31T07:53:51;2.40;;;2.30;;
317;SDS011;146;53.448;10.228;2023-07-31T07:56:25;2.50;;;2.27;;
317;SDS011;146;53.448;10.228;2023-07-31T07:58:56;1.70;;;1.60;;
317;SDS011;146;53.448;10.228;2023-07-31T08:01:26;1.73;;;1.63;;
317;SDS011;146;53.448;10.228;2023-07-31T08:03:53;1.73;;;1.63;;
317;SDS011;146;53.448;10.228;2023-07-31T08:06:22;1.70;;;1.60;;
317;SDS011;146;53.448;10.228;2023-07-31T08:08:55;2.60;;;2.10;;
317;SDS011;146;53.448;10.228;2023-07-31T08:11:22;4.83;;;1.80;;
317;SDS011;146;53.448;10.228;2023-07-31T08:13:54;1.57;;;1.47;;
317;SDS011;146;53.448;10.228;2023-07-31T08:16:22;1.50;;;1.40;;
317;SDS011;146;53.448;10.228;2023-07-31T08:18:57;1.50;;;1.40;;
317;SDS011;146;53.448;10.228;2023-07-31T08:21:26;1.73;;;1.63;;
317;SDS011;146;53.448;10.228;2023-07-31T08:23:53;1.57;;;1.47;;
317;SDS011;146;53.448;10.228;2023-07-31T08:26:20;1.20;;;1.10;;
317;SDS011;146;53.448;10.228;2023-07-31T08:28:55;1.43;;;1.33;;
317;SDS011;146;53.448;10.228;2023-07-31T08:31:28;1.10;;;1.10;;
317;SDS011;146;53.448;10.228;2023-07-31T08:33:58;1.33;;;1.23;;
317;SDS011;146;53.448;10.228;2023-07-31T08:36:25;1.10;;;1.10;;
317;SDS011;146;53.448;10.228;2023-07-31T08:38:52;1.03;;;1.03;;
317;SDS011;146;53.448;10.228;2023-07-31T08:41:22;1.10;;;1.10;;
317;SDS011;146;53.448;10.228;2023-07-31T08:43:55;1.13;;;1.10;;
317;SDS011;146;53.448;10.228;2023-07-31T08:48:54;2.10;;;0.93;;
317;SDS011;146;53.448;10.228;2023-07-31T08:51:28;1.60;;;1.07;;
317;SDS011;146;53.448;10.228;2023-07-31T08:53:56;1.00;;;1.00;;
317;SDS011;146;53.448;10.228;2023-07-31T08:56:26;0.93;;;0.93;;
317;SDS011;146;53.448;10.228;2023-07-31T08:58:59;1.00;;;1.00;;
317;SDS011;146;53.448;10.228;2023-07-31T09:01:47;0.97;;;0.97;;
317;SDS011;146;53.448;10.228;2023-07-31T09:04:30;1.20;;;1.10;;
317;SDS011;146;53.448;10.228;2023-07-31T09:07:00;0.90;;;0.90;;
317;SDS011;146;53.448;10.228;2023-07-31T09:09:37;1.53;;;0.80;;
317;SDS011;146;53.448;10.228;2023-07-31T09:12:04;1.63;;;1.17;;
317;SDS011;146;53.448;10.228;2023-07-31T09:14:48;1.00;;;1.00;;
317;SDS011;146;53.448;10.228;2023-07-31T09:17:28;1.10;;;1.00;;
317;SDS011;146;53.448;10.228;2023-07-31T09:19:59;1.00;;;0.70;;
317;SDS011;146;53.448;10.228;2023-07-31T09:22:39;0.87;;;0.70;;
317;SDS011;146;53.448;10.228;2023-07-31T09:25:14;0.90;;;0.90;;
317;SDS011;146;53.448;10.228;2023-07-31T09:27:48;1.07;;;1.00;;
317;SDS011;146;53.448;10.228;2023-07-31T09:30:19;0.70;;;0.70;;
317;SDS011;146;53.448;10.228;2023-07-31T09:32:50;0.90;;;0.90;;
317;SDS011;146;53.448;10.228;2023-07-31T09:35:22;1.20;;;0.70;;
317;SDS011;146;53.448;10.228;2023-07-31T09:38:05;0.70;;;0.70;;
317;SDS011;146;53.448;10.228;2023-07-31T09:40:33;1.20;;;0.67;;
317;SDS011;146;53.448;10.228;2023-07-31T09:43:02;1.77;;;0.57;;
317;SDS011;146;53.448;10.228;2023-07-31T09:45:35;0.60;;;0.60;;
317;SDS011;146;53.448;10.228;2023-07-31T09:48:10;0.60;;;0.53;;
317;SDS011;146;53.448;10.228;2023-07-31T09:50:45;0.60;;;0.60;;
317;SDS011;146;53.448;10.228;2023-07-31T09:53:14;0.70;;;0.50;;
317;SDS011;146;53.448;10.228;2023-07-31T09:55:51;0.80;;;0.53;;
317;SDS011;146;53.448;10.228;2023-07-31T09:58:24;0.80;;;0.70;;
317;SDS011;146;53.448;10.228;2023-07-31T10:00:54;1.03;;;0.77;;
317;SDS011;146;53.448;10.228;2023-07-31T10:03:26;1.53;;;1.43;;
317;SDS011;146;53.448;10.228;2023-07-31T10:05:57;2.70;;;2.43;;
317;SDS011;146;53.448;10.228;2023-07-31T10:08:27;3.57;;;3.23;;
317;SDS011;146;53.448;10.228;2023-07-31T10:10:59;4.30;;;3.90;;
317;SDS011;146;53.448;10.228;2023-07-31T10:13:28;3.90;;;3.50;;
317;SDS011;146;53.448;10.228;2023-07-31T10:15:59;8.90;;;5.73;;
317;SDS011;146;53.448;10.228;2023-07-31T10:18:26;8.63;;;6.93;;
317;SDS011;146;53.448;10.228;2023-07-31T10:20:54;7.40;;;6.27;;
317;SDS011;146;53.448;10.228;2023-07-31T10:23:23;9.50;;;6.50;;
317;SDS011;146;53.448;10.228;2023-07-31T10:25:51;8.83;;;7.70;;
317;SDS011;146;53.448;10.228;2023-07-31T10:28:19;10.43;;;7.40;;
317;SDS011;146;53.448;10.228;2023-07-31T10:30:47;11.80;;;8.10;;
317;SDS011;146;53.448;10.228;2023-07-31T10:33:15;9.43;;;8.40;;
317;SDS011;146;53.448;10.228;2023-07-31T10:35:44;10.30;;;8.77;;
317;SDS011;146;53.448;10.228;2023-07-31T10:38:15;12.43;;;8.90;;
317;SDS011;146;53.448;10.228;2023-07-31T10:40:42;12.90;;;9.10;;
317;SDS011;146;53.448;10.228;2023-07-31T10:43:09;11.53;;;9.00;;
317;SDS011;146;53.448;10.228;2023-07-31T10:45:51;13.37;;;8.10;;
317;SDS011;146;53.448;10.228;2023-07-31T10:48:18;11.77;;;8.70;;
317;SDS011;146;53.448;10.228;2023-07-31T10:50:49;15.33;;;8.97;;
317;SDS011;146;53.448;10.228;2023-07-31T10:53:24;14.50;;;9.07;;
317;SDS011;146;53.448;10.228;2023-07-31T10:55:52;12.27;;;8.67;;
317;SDS011;146;53.448;10.228;2023-07-31T10:58:20;12.33;;;9.30;;
317;SDS011;146;53.448;10.228;2023-07-31T11:00:47;8.90;;;8.10;;
317;SDS011;146;53.448;10.228;2023-07-31T11:03:15;9.57;;;8.13;;
317;SDS011;146;53.448;10.228;2023-07-31T11:05:46;11.00;;;9.20;;
317;SDS011;146;53.448;10.228;2023-07-31T11:08:22;13.53;;;8.30;;
317;SDS011;146;53.448;10.228;2023-07-31T11:10:51;9.13;;;7.83;;
317;SDS011;146;53.448;10.228;2023-07-31T11:13:32;7.63;;;6.83;;
317;SDS011;146;53.448;10.228;2023-07-31T11:15:59;6.27;;;5.70;;
317;SDS011;146;53.448;10.228;2023-07-31T11:18:27;9.20;;;6.60;;
317;SDS011;146;53.448;10.228;2023-07-31T11:21:00;10.00;;;6.67;;
317;SDS011;146;53.448;10.228;2023-07-31T11:23:27;7.30;;;6.70;;
317;SDS011;146;53.448;10.228;2023-07-31T11:25:58;6.87;;;6.20;;
317;SDS011;146;53.448;10.228;2023-07-31T11:28:25;7.17;;;5.83;;
317;SDS011;146;53.448;10.228;2023-07-31T11:30:55;7.50;;;5.30;;
317;SDS011;146;53.448;10.228;2023-07-31T11:33:25;6.20;;;5.07;;
317;SDS011;146;53.448;10.228;2023-07-31T11:35:52;4.50;;;4.10;;
317;SDS011;146;53.448;10.228;2023-07-31T11:38:21;5.37;;;4.90;;
317;SDS011;146;53.448;10.228;2023-07-31T11:40:52;5.10;;;3.90;;
317;SDS011;146;53.448;10.228;2023-07-31T11:43:28;4.70;;;4.27;;
317;SDS011;146;53.448;10.228;2023-07-31T11:45:57;4.03;;;3.73;;
317;SDS011;146;53.448;10.228;2023-07-31T11:48:28;5.10;;;4.70;;
317;SDS011;146;53.448;10.228;2023-07-31T11:50:58;3.83;;;3.53;;
317;SDS011;146;53.448;10.228;2023-07-31T11:53:27;3.97;;;3.63;;
317;SDS011;146;53.448;10.228;2023-07-31T11:58:51;3.50;;;3.20;;
317;SDS011;146;53.448;10.228;2023-07-31T12:01:21;4.23;;;3.93;;
317;SDS011;146;53.448;10.228;2023-07-31T12:03:49;4.27;;;3.87;;
317;SDS011;146;53.448;10.228;2023-07-31T12:06:17;3.93;;;3.40;;
317;SDS011;146;53.448;10.228;2023-07-31T12:08:48;5.20;;;3.20;;
317;SDS011;146;53.448;10.228;2023-07-31T12:11:18;3.60;;;3.20;;
317;SDS011;146;53.448;10.228;2023-07-31T12:13:45;6.10;;;3.90;;
317;SDS011;146;53.448;10.228;2023-07-31T12:16:15;3.00;;;2.80;;
317;SDS011;146;53.448;10.228;2023-07-31T12:18:42;2.70;;;2.50;;
317;SDS011;146;53.448;10.228;2023-07-31T12:21:18;2.43;;;2.23;;
317;SDS011;146;53.448;10.228;2023-07-31T12:23:46;3.30;;;3.00;;
317;SDS011;146;53.448;10.228;2023-07-31T12:26:16;5.00;;;2.90;;
317;SDS011;146;53.448;10.228;2023-07-31T12:28:54;2.40;;;2.10;;
317;SDS011;146;53.448;10.228;2023-07-31T12:31:22;2.70;;;2.50;;
317;SDS011;146;53.448;10.228;2023-07-31T12:33:50;2.97;;;2.77;;
317;SDS011;146;53.448;10.228;2023-07-31T12:36:29;2.30;;;2.10;;
317;SDS011;146;53.448;10.228;2023-07-31T12:39:03;2.47;;;2.27;;
317;SDS011;146;53.448;10.228;2023-07-31T12:41:49;2.80;;;2.50;;
317;SDS011;146;53.448;10.228;2023-07-31T12:44:19;2.77;;;2.50;;
317;SDS011;146;53.448;10.228;2023-07-31T12:46:56;2.63;;;2.43;;
317;SDS011;146;53.448;10.228;2023-07-31T12:49:23;2.17;;;2.07;;
317;SDS011;146;53.448;10.228;2023-07-31T12:51:55;2.67;;;2.47;;
317;SDS011;146;53.448;10.228;2023-07-31T12:54:22;2.10;;;1.83;;
317;SDS011;146;53.448;10.228;2023-07-31T12:56:52;1.77;;;1.67;;
317;SDS011;146;53.448;10.228;2023-07-31T12:59:22;1.90;;;1.80;;
317;SDS011;146;53.448;10.228;2023-07-31T13:01:48;2.87;;;2.67;;
317;SDS011;146;53.448;10.228;2023-07-31T13:04:19;2.43;;;2.23;;
317;SDS011;146;53.448;10.228;2023-07-31T13:06:52;2.00;;;1.90;;
317;SDS011;146;53.448;10.228;2023-07-31T13:09:24;2.10;;;2.00;;
317;SDS011;146;53.448;10.228;2023-07-31T13:11:53;2.10;;;2.00;;
317;SDS011;146;53.448;10.228;2023-07-31T13:14:23;2.13;;;2.03;;
317;SDS011;146;53.448;10.228;2023-07-31T13:16:50;2.00;;;1.90;;
317;SDS011;146;53.448;10.228;2023-07-31T13:19:23;2.40;;;2.20;;
317;SDS011;146;53.448;10.228;2023-07-31T13:21:55;2.70;;;2.50;;
317;SDS011;146;53.448;10.228;2023-07-31T13:24:22;2.10;;;2.00;;
317;SDS011;146;53.448;10.228;2023-07-31T13:26:55;1.90;;;1.80;;
317;SDS011;146;53.448;10.228;2023-07-31T13:29:29;2.10;;;2.00;;
317;SDS011;146;53.448;10.228;2023-07-31T13:32:01;1.90;;;1.80;;
317;SDS011;146;53.448;10.228;2023-07-31T13:34:39;1.97;;;1.87;;
317;SDS011;146;53.448;10.228;2023-07-31T13:37:09;2.00;;;1.90;;
317;SDS011;146;53.448;10.228;2023-07-31T13:39:35;2.03;;;1.83;;
317;SDS011;146;53.448;10.228;2023-07-31T13:42:12;2.03;;;1.93;;
317;SDS011;146;53.448;10.228;2023-07-31T13:44:41;2.03;;;1.83;;
317;SDS011;146;53.448;10.228;2023-07-31T13:47:08;2.00;;;1.90;;
317;SDS011;146;53.448;10.228;2023-07-31T13:49:39;2.20;;;2.10;;
317;SDS011;146;53.448;10.228;2023-07-31T13:52:11;2.10;;;2.00;;
317;SDS011;146;53.448;10.228;2023-07-31T13:54:38;2.47;;;2.37;;
317;SDS011;146;53.448;10.228;2023-07-31T13:57:10;2.03;;;1.93;;
317;SDS011;146;53.448;10.228;2023-07-31T13:59:37;2.40;;;2.20;;
317;SDS011;146;53.448;10.228;2023-07-31T14:02:04;1.80;;;1.70;;
317;SDS011;146;53.448;10.228;2023-07-31T14:04:32;2.17;;;2.07;;
317;SDS011;146;53.448;10.228;2023-07-31T14:07:00;1.87;;;1.77;;
317;SDS011;146;53.448;10.228;2023-07-31T14:09:27;1.60;;;1.50;;
317;SDS011;146;53.448;10.228;2023-07-31T14:11:53;1.43;;;1.43;;
317;SDS011;146;53.448;10.228;2023-07-31T14:14:20;1.60;;;1.50;;
317;SDS011;146;53.448;10.228;2023-07-31T14:16:53;1.63;;;1.30;;
317;SDS011;146;53.448;10.228;2023-07-31T14:19:23;1.57;;;1.50;;
317;SDS011;146;53.448;10.228;2023-07-31T14:21:50;1.47;;;1.37;;
317;SDS011;146;53.448;10.228;2023-07-31T14:24:24;1.70;;;1.60;;
317;SDS011;146;53.448;10.228;2023-07-31T14:26:51;1.20;;;1.20;;
317;SDS011;146;53.448;10.228;2023-07-31T14:29:37;3.40;;;1.70;;
317;SDS011;146;53.448;10.228;2023-07-31T14:32:10;1.73;;;1.63;;
317;SDS011;146;53.448;10.228;2023-07-31T14:34:37;1.70;;;1.60;;
317;SDS011;146;53.448;10.228;2023-07-31T14:37:10;1.90;;;1.67;;
317;SDS011;146;53.448;10.228;2023-07-31T14:39:38;3.97;;;1.90;;
317;SDS011;146;53.448;10.228;2023-07-31T14:42:05;2.00;;;1.90;;
317;SDS011;146;53.448;10.228;2023-07-31T14:44:35;2.50;;;2.40;;
317;SDS011;146;53.448;10.228;2023-07-31T14:47:02;2.53;;;2.43;;
317;SDS011;146;53.448;10.228;2023-07-31T14:49:35;3.50;;;2.97;;
317;SDS011;146;53.448;10.228;2023-07-31T14:52:02;3.67;;;3.37;;
317;SDS011;146;53.448;10.228;2023-07-31T14:54:29;3.20;;;2.90;;
317;SDS011;146;53.448;10.228;2023-07-31T14:56:57;3.20;;;3.00;;
317;SDS011;146;53.448;10.228;2023-07-31T14:59:24;3.77;;;3.47;;
317;SDS011;146;53.448;10.228;2023-07-31T15:01:51;3.37;;;3.07;;
317;SDS011;146;53.448;10.228;2023-07-31T15:04:18;3.63;;;3.33;;
317;SDS011;146;53.448;10.228;2023-07-31T15:06:44;4.10;;;3.80;;
317;SDS011;146;53.448;10.228;2023-07-31T15:09:18;4.33;;;3.97;;
317;SDS011;146;53.448;10.228;2023-07-31T15:11:45;4.07;;;3.77;;
317;SDS011;146;53.448;10.228;2023-07-31T15:14:14;4.13;;;3.83;;
317;SDS011;146;53.448;10.228;2023-07-31T15:16:41;4.50;;;4.10;;
317;SDS011;146;53.448;10.228;2023-07-31T15:19:08;4.60;;;4.30;;
317;SDS011;146;53.448;10.228;2023-07-31T15:21:35;4.37;;;4.07;;
317;SDS011;146;53.448;10.228;2023-07-31T15:24:02;4.40;;;4.10;;
317;SDS011;146;53.448;10.228;2023-07-31T15:26:35;4.37;;;4.10;;
317;SDS011;146;53.448;10.228;2023-07-31T15:29:04;3.90;;;3.60;;
317;SDS011;146;53.448;10.228;2023-07-31T15:31:44;4.50;;;4.20;;
317;SDS011;146;53.448;10.228;2023-07-31T15:34:14;4.90;;;4.50;;
317;SDS011;146;53.448;10.228;2023-07-31T15:36:44;4.13;;;3.83;;
317;SDS011;146;53.448;10.228;2023-07-31T15:39:14;4.00;;;3.70;;
317;SDS011;146;53.448;10.228;2023-07-31T15:41:41;3.93;;;3.47;;
317;SDS011;146;53.448;10.228;2023-07-31T15:44:11;5.40;;;4.90;;
317;SDS011;146;53.448;10.228;2023-07-31T15:46:41;4.73;;;4.33;;
317;SDS011;146;53.448;10.228;2023-07-31T15:49:12;4.57;;;4.20;;
317;SDS011;146;53.448;10.228;2023-07-31T15:51:39;5.60;;;5.20;;
317;SDS011;146;53.448;10.228;2023-07-31T15:54:12;5.90;;;5.40;;
317;SDS011;146;53.448;10.228;2023-07-31T15:56:39;5.53;;;5.03;;
317;SDS011;146;53.448;10.228;2023-07-31T15:59:09;5.50;;;5.10;;
317;SDS011;146;53.448;10.228;2023-07-31T16:01:48;5.60;;;5.20;;
317;SDS011;146;53.448;10.228;2023-07-31T16:04:19;5.97;;;5.27;;
317;SDS011;146;53.448;10.228;2023-07-31T16:07:04;6.30;;;5.73;;
317;SDS011;146;53.448;10.228;2023-07-31T16:09:34;6.23;;;5.73;;
317;SDS011;146;53.448;10.228;2023-07-31T16:12:09;6.27;;;5.67;;
317;SDS011;146;53.448;10.228;2023-07-31T16:14:39;6.47;;;5.80;;
317;SDS011;146;53.448;10.228;2023-07-31T16:17:09;6.30;;;5.40;;
317;SDS011;146;53.448;10.228;2023-07-31T16:19:43;6.73;;;6.17;;
317;SDS011;146;53.448;10.228;2023-07-31T16:22:10;6.13;;;5.70;;
317;SDS011;146;53.448;10.228;2023-07-31T16:24:40;6.70;;;6.07;;
317;SDS011;146;53.448;10.228;2023-07-31T16:27:07;6.83;;;6.17;;
317;SDS011;146;53.448;10.228;2023-07-31T16:29:36;6.87;;;5.40;;
317;SDS011;146;53.448;10.228;2023-07-31T16:32:06;6.47;;;5.87;;
317;SDS011;146;53.448;10.228;2023-07-31T16:34:36;5.90;;;5.40;;
317;SDS011;146;53.448;10.228;2023-07-31T16:37:07;6.03;;;5.50;;
317;SDS011;146;53.448;10.228;2023-07-31T16:39:36;6.40;;;5.80;;
317;SDS011;146;53.448;10.228;2023-07-31T16:42:12;6.60;;;6.10;;
317;SDS011;146;53.448;10.228;2023-07-31T16:44:39;6.63;;;6.00;;
317;SDS011;146;53.448;10.228;2023-07-31T16:47:06;5.47;;;5.07;;
317;SDS011;146;53.448;10.228;2023-07-31T16:49:36;8.27;;;7.03;;
317;SDS011;146;53.448;10.228;2023-07-31T16:52:04;6.57;;;5.87;;
317;SDS011;146;53.448;10.228;2023-07-31T16:54:34;5.87;;;5.40;;
317;SDS011;146;53.448;10.228;2023-07-31T16:57:04;5.70;;;5.20;;
317;SDS011;146;53.448;10.228;2023-07-31T16:59:31;6.00;;;5.50;;
317;SDS011;146;53.448;10.228;2023-07-31T17:01:58;6.40;;;5.00;;
317;SDS011;146;53.448;10.228;2023-07-31T17:04:25;5.60;;;5.13;;
317;SDS011;146;53.448;10.228;2023-07-31T17:06:54;6.10;;;5.60;;
317;SDS011;146;53.448;10.228;2023-07-31T17:09:39;9.23;;;6.30;;
317;SDS011;146;53.448;10.228;2023-07-31T17:12:06;5.90;;;5.30;;
317;SDS011;146;53.448;10.228;2023-07-31T17:14:42;6.90;;;6.20;;
317;SDS011;146;53.448;10.228;2023-07-31T17:17:09;5.70;;;5.20;;
317;SDS011;146;53.448;10.228;2023-07-31T17:19:37;5.90;;;5.40;;
317;SDS011;146;53.448;10.228;2023-07-31T17:22:04;5.00;;;4.60;;
317;SDS011;146;53.448;10.228;2023-07-31T17:24:31;6.07;;;5.10;;
317;SDS011;146;53.448;10.228;2023-07-31T17:27:05;5.67;;;5.17;;
317;SDS011;146;53.448;10.228;2023-07-31T17:29:38;6.53;;;5.83;;
317;SDS011;146;53.448;10.228;2023-07-31T17:32:05;6.27;;;4.70;;
317;SDS011;146;53.448;10.228;2023-07-31T17:34:36;7.93;;;5.33;;
317;SDS011;146;53.448;10.228;2023-07-31T17:37:12;6.00;;;5.40;;
317;SDS011;146;53.448;10.228;2023-07-31T17:39:45;5.23;;;4.80;;
317;SDS011;146;53.448;10.228;2023-07-31T17:42:13;5.00;;;4.60;;